Terminal Aerodrome Forecast
Issued by NWS Cleveland, OH

Home | Current Version | Previous Version | Graphics & Text | Print | Product List | Glossary On
Versions: 1 2 3 4 5 6 7 8 9 10 11 12 13 14 15 16
000
FTUS41 KCLE 221600 AAA
TAFMFD
TAF AMD
KMFD 221604Z 2216/2312 27015G25KT P6SM SCT025 OVC045
      TEMPO 2216/2220 5SM -RA OVC025
     FM222000 27020G30KT P6SM SCT020 OVC035
     FM230200 27012KT P6SM OVC020=

USA.gov is the U.S. government's official web portal to all federal, state and local government web resources and services.